createdAt,value
2018-06-10T00:00:28.789Z,30.50
2018-06-10T00:02:56.847Z,29.07
2018-06-10T00:05:24.951Z,30.93
2018-06-10T00:07:53.033Z,25.03
2018-06-10T00:10:21.515Z,31.60
2018-06-10T00:12:50.357Z,34.63
2018-06-10T00:15:20.196Z,28.77
2018-06-10T00:17:49.157Z,27.40
2018-06-10T00:20:17.841Z,26.53
2018-06-10T00:22:46.494Z,23.20
2018-06-10T00:25:14.640Z,29.80
2018-06-10T00:27:42.690Z,29.73
2018-06-10T00:30:10.766Z,29.07
2018-06-10T00:32:38.857Z,27.03
2018-06-10T00:35:06.898Z,34.67
2018-06-10T00:37:34.981Z,34.80
2018-06-10T00:40:03.137Z,29.43
2018-06-10T00:42:31.274Z,24.60
2018-06-10T00:44:59.329Z,27.67
2018-06-10T00:47:27.421Z,28.77
2018-06-10T00:49:55.458Z,27.43
2018-06-10T00:52:23.530Z,30.77
2018-06-10T00:54:51.961Z,24.17
2018-06-10T00:57:21.102Z,25.73
2018-06-10T00:59:50.201Z,27.87
2018-06-10T01:02:18.858Z,32.60
2018-06-10T01:04:47.104Z,30.77
2018-06-10T01:07:15.325Z,30.23
2018-06-10T01:09:43.401Z,31.70
2018-06-10T01:12:11.628Z,26.27
2018-06-10T01:14:39.682Z,26.00
2018-06-10T01:17:07.847Z,30.30
2018-06-10T01:19:37.068Z,32.90
2018-06-10T01:22:05.189Z,27.63
2018-06-10T01:24:33.275Z,29.17
2018-06-10T01:27:01.336Z,37.57
2018-06-10T01:29:29.412Z,26.10
2018-06-10T01:31:57.501Z,29.93
2018-06-10T01:34:25.557Z,28.10
2018-06-10T01:36:53.710Z,28.43
2018-06-10T01:39:22.545Z,25.80
2018-06-10T01:41:51.480Z,29.93
2018-06-10T01:44:20.275Z,31.90
2018-06-10T01:46:48.551Z,33.73
2018-06-10T01:49:16.753Z,30.97
2018-06-10T01:51:44.854Z,30.80
2018-06-10T01:54:12.916Z,31.67
2018-06-10T01:56:41.041Z,27.80
2018-06-10T01:59:09.080Z,30.60
2018-06-10T02:01:37.134Z,34.80
2018-06-10T02:04:05.208Z,36.73
2018-06-10T02:06:33.564Z,36.53
2018-06-10T02:09:02.721Z,34.47
2018-06-10T02:11:31.638Z,35.40
2018-06-10T02:14:00.627Z,31.27
2018-06-10T02:16:28.803Z,34.97
2018-06-10T02:18:57.430Z,34.70
2018-06-10T02:21:25.541Z,33.50
2018-06-10T02:23:53.649Z,37.70
2018-06-10T02:26:21.697Z,34.20
2018-06-10T02:28:49.827Z,34.57
2018-06-10T02:31:17.881Z,33.00
2018-06-10T02:33:45.967Z,38.43
2018-06-10T02:36:14.030Z,30.50
2018-06-10T02:38:42.123Z,31.90
2018-06-10T02:41:10.201Z,30.47
2018-06-10T02:43:38.276Z,35.00
2018-06-10T02:46:06.317Z,30.43
2018-06-10T02:48:34.578Z,33.87
2018-06-10T02:51:03.501Z,32.40
2018-06-10T02:53:32.415Z,37.83
2018-06-10T02:56:01.718Z,35.43
2018-06-10T02:58:29.870Z,39.20
2018-06-10T03:00:58.006Z,32.10
2018-06-10T03:03:26.077Z,37.10
2018-06-10T03:05:54.129Z,30.83
2018-06-10T03:08:22.197Z,31.80
2018-06-10T03:10:50.286Z,41.30
2018-06-10T03:13:18.415Z,41.80
2018-06-10T03:15:46.481Z,33.70
2018-06-10T03:18:14.561Z,40.10
2018-06-10T03:20:42.636Z,33.70
2018-06-10T03:23:10.719Z,32.80
2018-06-10T03:25:38.835Z,34.90
2018-06-10T03:28:06.946Z,34.07
2018-06-10T03:30:35.283Z,29.80
2018-06-10T03:33:04.245Z,33.80
2018-06-10T03:35:33.337Z,36.60
2018-06-10T03:38:02.137Z,36.10
2018-06-10T03:40:30.330Z,35.00
2018-06-10T03:42:58.564Z,30.73
2018-06-10T03:45:26.617Z,32.67
2018-06-10T03:47:54.647Z,32.93
2018-06-10T03:50:22.743Z,27.13
2018-06-10T03:52:50.795Z,32.73
2018-06-10T03:55:18.873Z,32.10
2018-06-10T03:57:46.928Z,34.00
2018-06-10T04:00:15.027Z,33.30
2018-06-10T04:02:43.090Z,33.17
2018-06-10T04:05:11.177Z,28.40
2018-06-10T04:07:39.242Z,30.80
2018-06-10T04:10:07.364Z,31.43
2018-06-10T04:12:35.611Z,27.87
2018-06-10T04:15:04.603Z,38.53
2018-06-10T04:17:33.543Z,34.63
2018-06-10T04:20:02.231Z,34.43
2018-06-10T04:22:30.465Z,29.10
2018-06-10T04:24:58.753Z,30.53
2018-06-10T04:27:26.805Z,31.43
2018-06-10T04:29:54.914Z,32.17
2018-06-10T04:32:23.024Z,31.90
2018-06-10T04:34:51.145Z,27.70
2018-06-10T04:37:19.208Z,34.63
2018-06-10T04:39:47.293Z,31.80
2018-06-10T04:42:15.347Z,32.63
2018-06-10T04:44:43.644Z,31.50
2018-06-10T04:47:11.714Z,40.93
2018-06-10T04:49:39.831Z,29.40
2018-06-10T04:52:07.876Z,34.27
2018-06-10T04:54:36.317Z,36.30
2018-06-10T04:57:05.392Z,30.53
2018-06-10T04:59:34.253Z,32.20
2018-06-10T05:02:02.847Z,35.53
2018-06-10T05:04:31.113Z,39.43
2018-06-10T05:06:59.209Z,32.03
2018-06-10T05:09:27.387Z,38.20
2018-06-10T05:11:55.443Z,27.20
2018-06-10T05:14:23.574Z,30.03
2018-06-10T05:16:51.985Z,34.50
2018-06-10T05:19:20.059Z,30.77
2018-06-10T05:21:48.109Z,30.23
2018-06-10T05:24:16.173Z,27.67
2018-06-10T05:26:44.298Z,36.93
2018-06-10T05:29:13.251Z,38.53
2018-06-10T05:31:41.328Z,30.17
2018-06-10T05:34:09.420Z,36.30
2018-06-10T05:36:37.832Z,36.90
2018-06-10T05:39:07.699Z,35.30
2018-06-10T05:41:36.562Z,31.40
2018-06-10T05:44:05.884Z,37.77
2018-06-10T05:46:34.586Z,34.50
2018-06-10T05:49:02.961Z,40.43
2018-06-10T05:51:31.199Z,33.70
2018-06-10T05:53:59.257Z,34.90
2018-06-10T05:56:27.328Z,37.37
2018-06-10T05:58:55.384Z,43.20
2018-06-10T06:01:23.458Z,40.40
2018-06-10T06:03:51.492Z,38.77
2018-06-10T06:06:20.113Z,44.43
2018-06-10T06:08:49.703Z,97.93
2018-06-10T06:11:19.622Z,42.50
2018-06-10T06:13:49.565Z,50.47
2018-06-10T06:16:19.347Z,41.47
2018-06-10T06:18:47.968Z,40.60
2018-06-10T06:21:17.133Z,35.50
2018-06-10T06:23:45.427Z,37.97
2018-06-10T06:26:13.513Z,35.00
2018-06-10T06:28:41.668Z,31.40
2018-06-10T06:31:09.844Z,41.53
2018-06-10T06:33:38.426Z,33.70
2018-06-10T06:36:07.527Z,33.30
2018-06-10T06:38:36.486Z,33.90
2018-06-10T06:41:05.070Z,31.90
2018-06-10T06:43:33.255Z,37.17
2018-06-10T06:46:01.328Z,43.53
2018-06-10T06:48:29.361Z,38.13
2018-06-10T06:50:57.445Z,37.90
2018-06-10T06:53:25.491Z,37.43
2018-06-10T06:55:53.632Z,34.33
2018-06-10T06:58:21.743Z,32.90
2018-06-10T07:00:49.825Z,28.47
2018-06-10T07:03:17.895Z,30.20
2018-06-10T07:05:45.986Z,29.97
2018-06-10T07:08:14.033Z,36.30
2018-06-10T07:10:42.129Z,33.97
2018-06-10T07:13:10.369Z,28.63
2018-06-10T07:15:38.927Z,34.37
2018-06-10T07:18:08.018Z,30.83
2018-06-10T07:20:36.906Z,30.77
2018-06-10T07:23:05.911Z,32.40
2018-06-10T07:25:34.101Z,30.83
2018-06-10T07:28:02.625Z,33.20
2018-06-10T07:30:30.825Z,28.77
2018-06-10T07:32:58.924Z,40.13
2018-06-10T07:35:27.032Z,29.00
2018-06-10T07:37:55.163Z,29.23
2018-06-10T07:40:23.225Z,31.40
2018-06-10T07:42:51.350Z,32.37
2018-06-10T07:45:19.408Z,33.70
2018-06-10T07:47:47.493Z,31.97
2018-06-10T07:50:15.547Z,24.13
2018-06-10T07:52:43.619Z,33.40
2018-06-10T07:55:11.684Z,25.77
2018-06-10T07:57:40.239Z,25.47
2018-06-10T08:00:09.799Z,23.50
2018-06-10T08:02:38.740Z,26.83
2018-06-10T08:05:07.528Z,27.50
2018-06-10T08:07:35.807Z,34.40
2018-06-10T08:10:04.055Z,27.60
2018-06-10T08:12:32.246Z,30.43
2018-06-10T08:15:00.497Z,25.47
2018-06-10T08:17:28.650Z,28.33
2018-06-10T08:19:57.064Z,23.97
2018-06-10T08:22:25.271Z,26.37
2018-06-10T08:24:53.494Z,19.97
2018-06-10T08:27:21.766Z,21.67
2018-06-10T08:29:49.940Z,20.00
2018-06-10T08:32:18.118Z,20.17
2018-06-10T08:34:46.395Z,20.93
2018-06-10T08:37:14.497Z,20.17
2018-06-10T08:39:42.556Z,19.70
2018-06-10T08:42:11.141Z,18.07
2018-06-10T08:44:40.814Z,19.07
2018-06-10T08:47:13.452Z,20.90
2018-06-10T08:49:41.832Z,19.43
2018-06-10T08:52:10.870Z,19.17
2018-06-10T08:54:39.824Z,24.00
2018-06-10T08:57:08.732Z,20.07
2018-06-10T08:59:39.210Z,20.63
2018-06-10T09:02:07.445Z,19.77
2018-06-10T09:04:35.732Z,30.43
2018-06-10T09:07:03.917Z,17.80
2018-06-10T09:09:32.768Z,22.13
2018-06-10T09:12:01.880Z,20.43
2018-06-10T09:14:30.615Z,24.03
2018-06-10T09:16:58.943Z,18.80
2018-06-10T09:19:27.183Z,16.87
2018-06-10T09:21:55.254Z,15.37
2018-06-10T09:24:23.321Z,17.37
2018-06-10T09:26:51.390Z,17.50
2018-06-10T09:29:19.486Z,27.03
2018-06-10T09:31:47.537Z,17.53
2018-06-10T09:34:15.621Z,21.07
2018-06-10T09:36:43.681Z,19.87
2018-06-10T09:39:11.886Z,19.47
2018-06-10T09:41:39.924Z,25.13
2018-06-10T09:44:08.022Z,19.37
2018-06-10T09:46:36.070Z,22.67
2018-06-10T09:49:05.248Z,20.07
2018-06-10T09:51:34.757Z,21.10
2018-06-10T09:54:03.962Z,19.23
2018-06-10T09:56:33.962Z,20.10
2018-06-10T09:59:03.493Z,15.60
2018-06-10T10:01:32.606Z,14.90
2018-06-10T10:04:01.440Z,13.90
2018-06-10T10:06:30.733Z,13.73
2018-06-10T10:09:00.253Z,19.80
2018-06-10T10:11:29.849Z,15.73
2018-06-10T10:14:01.113Z,15.20
2018-06-10T10:16:30.112Z,16.43
2018-06-10T10:18:58.928Z,12.70
2018-06-10T10:21:26.988Z,23.73
2018-06-10T10:23:55.068Z,13.53
2018-06-10T10:26:23.095Z,14.20
2018-06-10T10:28:51.168Z,14.20
2018-06-10T10:31:19.227Z,25.30
2018-06-10T10:33:47.299Z,13.97
2018-06-10T10:36:15.323Z,14.00
2018-06-10T10:38:43.424Z,15.33
2018-06-10T10:41:11.500Z,11.93
2018-06-10T10:43:39.602Z,17.43
2018-06-10T10:46:07.653Z,15.60
2018-06-10T10:48:35.932Z,11.17
2018-06-10T10:51:04.925Z,11.37
2018-06-10T10:53:33.887Z,13.07
2018-06-10T10:56:02.341Z,12.17
2018-06-10T10:58:30.512Z,12.50
2018-06-10T11:00:58.664Z,18.67
2018-06-10T11:03:26.723Z,14.60
2018-06-10T11:05:54.799Z,12.40
2018-06-10T11:08:22.840Z,11.60
2018-06-10T11:10:51.028Z,13.60
2018-06-10T11:13:19.052Z,11.63
2018-06-10T11:15:47.116Z,11.10
2018-06-10T11:18:15.146Z,11.07
2018-06-10T11:20:43.227Z,13.63
2018-06-10T11:23:11.262Z,10.27
2018-06-10T11:25:39.332Z,11.17
2018-06-10T11:28:07.372Z,11.07
2018-06-10T11:30:35.986Z,13.00
2018-06-10T11:33:05.029Z,11.77
2018-06-10T11:35:35.146Z,12.50
2018-06-10T11:38:04.362Z,12.00
2018-06-10T11:40:33.653Z,15.53
2018-06-10T11:43:02.367Z,16.13
2018-06-10T11:45:31.547Z,14.60
2018-06-10T11:48:00.705Z,10.00
2018-06-10T11:50:29.333Z,12.27
2018-06-10T11:52:58.288Z,11.33
2018-06-10T11:55:27.161Z,12.03
2018-06-10T11:57:56.054Z,12.53
2018-06-10T12:00:24.566Z,11.60
2018-06-10T12:02:53.484Z,10.93
2018-06-10T12:05:22.242Z,11.20
2018-06-10T12:07:51.282Z,12.07
2018-06-10T12:10:20.475Z,8.77
2018-06-10T12:12:48.842Z,10.57
2018-06-10T12:15:17.252Z,7.70
2018-06-10T12:17:45.439Z,10.53
2018-06-10T12:20:13.560Z,8.93
2018-06-10T12:22:41.694Z,12.40
2018-06-10T12:25:09.705Z,11.90
2018-06-10T12:27:38.174Z,9.80
2018-06-10T12:30:06.896Z,8.70
2018-06-10T12:32:36.359Z,11.90
2018-06-10T12:35:05.362Z,9.03
2018-06-10T12:37:34.152Z,10.30
2018-06-10T12:40:02.613Z,10.00
2018-06-10T12:42:31.090Z,16.13
2018-06-10T12:44:59.675Z,10.03
2018-06-10T12:47:27.901Z,11.73
2018-06-10T12:49:56.023Z,10.53
2018-06-10T12:52:24.085Z,9.07
2018-06-10T12:54:52.112Z,13.43
2018-06-10T12:57:20.205Z,11.10
2018-06-10T12:59:48.245Z,16.07
2018-06-10T13:02:16.449Z,18.63
2018-06-10T13:04:44.480Z,9.90
2018-06-10T13:07:12.527Z,10.97
2018-06-10T13:09:40.567Z,11.70
2018-06-10T13:12:08.651Z,9.53
2018-06-10T13:14:36.744Z,11.10
2018-06-10T13:17:04.856Z,14.43
2018-06-10T13:19:32.938Z,8.63
2018-06-10T13:22:01.008Z,9.87
2018-06-10T13:24:29.088Z,10.68
2018-06-10T13:26:57.150Z,12.23
2018-06-10T13:29:25.203Z,10.97
2018-06-10T13:31:53.300Z,12.57
2018-06-10T13:34:21.345Z,9.67
2018-06-10T13:36:49.423Z,12.73
2018-06-10T13:39:17.470Z,10.00
2018-06-10T13:41:45.550Z,10.00
2018-06-10T13:44:13.584Z,9.30
2018-06-10T13:46:41.659Z,10.27
2018-06-10T13:49:09.802Z,9.60
2018-06-10T13:51:37.933Z,10.37
2018-06-10T13:54:06.194Z,8.83
2018-06-10T13:56:34.240Z,8.90
2018-06-10T13:59:02.338Z,10.33
2018-06-10T14:01:30.392Z,9.07
2018-06-10T14:03:58.429Z,9.63
2018-06-10T14:06:26.484Z,11.53
2018-06-10T14:08:54.515Z,10.90
2018-06-10T14:11:22.582Z,10.03
2018-06-10T14:13:50.627Z,7.80
2018-06-10T14:16:18.716Z,12.10
2018-06-10T14:18:46.756Z,11.67
2018-06-10T14:21:14.805Z,8.27
2018-06-10T14:23:42.876Z,12.20
2018-06-10T14:26:11.000Z,10.80
2018-06-10T14:28:39.145Z,10.87
2018-06-10T14:31:07.214Z,11.10
2018-06-10T14:33:35.341Z,8.80
2018-06-10T14:36:03.911Z,8.70
2018-06-10T14:38:31.990Z,9.57
2018-06-10T14:41:00.112Z,9.87
2018-06-10T14:43:28.153Z,9.30
2018-06-10T14:45:56.196Z,9.83
2018-06-10T14:48:24.257Z,15.50
2018-06-10T14:50:52.297Z,10.60
2018-06-10T14:53:20.365Z,14.30
2018-06-10T14:55:48.400Z,10.53
2018-06-10T14:58:16.478Z,11.40
2018-06-10T15:00:44.529Z,15.50
2018-06-10T15:03:12.736Z,10.70
2018-06-10T15:05:41.086Z,9.23
2018-06-10T15:08:09.462Z,13.53
2018-06-10T15:10:37.572Z,16.10
2018-06-10T15:13:05.669Z,11.80
2018-06-10T15:15:33.704Z,9.73
2018-06-10T15:18:01.770Z,10.17
2018-06-10T15:20:29.829Z,9.40
2018-06-10T15:22:57.905Z,17.37
2018-06-10T15:25:25.948Z,12.37
2018-06-10T15:27:54.028Z,10.87
2018-06-10T15:30:22.065Z,9.77
2018-06-10T15:32:50.124Z,10.10
2018-06-10T15:35:18.196Z,11.73
2018-06-10T15:37:46.261Z,12.30
2018-06-10T15:40:14.308Z,13.90
2018-06-10T15:42:42.423Z,11.80
2018-06-10T15:45:10.530Z,10.20
2018-06-10T15:47:38.614Z,10.53
2018-06-10T15:50:06.745Z,12.87
2018-06-10T15:52:34.778Z,12.77
2018-06-10T15:55:02.814Z,9.70
2018-06-10T15:57:30.897Z,10.80
2018-06-10T15:59:58.932Z,11.93
2018-06-10T16:02:26.993Z,11.20
2018-06-10T16:04:55.054Z,9.43
2018-06-10T16:07:23.071Z,11.63
2018-06-10T16:09:52.688Z,11.47
2018-06-10T16:12:20.737Z,13.80
2018-06-10T16:14:48.814Z,17.73
2018-06-10T16:17:16.848Z,11.23
2018-06-10T16:19:45.015Z,14.33
2018-06-10T16:22:13.949Z,14.93
2018-06-10T16:24:42.920Z,10.63
2018-06-10T16:27:11.613Z,16.00
2018-06-10T16:29:39.971Z,13.07
2018-06-10T16:32:08.195Z,10.57
2018-06-10T16:34:36.268Z,12.07
2018-06-10T16:37:04.317Z,13.97
2018-06-10T16:39:32.417Z,13.53
2018-06-10T16:42:00.530Z,13.63
2018-06-10T16:44:28.632Z,9.87
2018-06-10T16:46:56.693Z,10.87
2018-06-10T16:49:24.765Z,11.67
2018-06-10T16:51:52.810Z,11.67
2018-06-10T16:54:21.006Z,9.80
2018-06-10T16:56:49.075Z,11.07
2018-06-10T16:59:17.167Z,12.90
2018-06-10T17:01:45.788Z,15.00
2018-06-10T17:04:14.777Z,12.00
2018-06-10T17:06:43.733Z,12.90
2018-06-10T17:09:12.625Z,13.13
2018-06-10T17:11:40.822Z,10.40
2018-06-10T17:14:09.015Z,7.80
2018-06-10T17:16:37.062Z,9.17
2018-06-10T17:19:05.156Z,8.47
2018-06-10T17:21:33.215Z,9.20
2018-06-10T17:24:01.307Z,17.73
2018-06-10T17:26:29.336Z,9.73
2018-06-10T17:28:57.448Z,14.33
2018-06-10T17:31:25.704Z,11.70
2018-06-10T17:33:53.804Z,12.07
2018-06-10T17:36:21.992Z,8.43
2018-06-10T17:38:50.023Z,11.30
2018-06-10T17:41:18.100Z,12.30
2018-06-10T17:43:46.785Z,9.77
2018-06-10T17:46:15.922Z,11.77
2018-06-10T17:48:44.643Z,13.57
2018-06-10T17:51:12.818Z,18.37
2018-06-10T17:53:41.074Z,13.97
2018-06-10T17:56:09.104Z,10.97
2018-06-10T17:58:37.287Z,11.33
2018-06-10T18:01:05.912Z,10.87
2018-06-10T18:03:34.456Z,11.60
2018-06-10T18:06:02.516Z,11.03
2018-06-10T18:08:30.588Z,13.17
2018-06-10T18:10:58.668Z,14.00
2018-06-10T18:13:26.729Z,17.53
2018-06-10T18:15:54.805Z,14.77
2018-06-10T18:18:22.857Z,12.37
2018-06-10T18:20:50.977Z,11.47
2018-06-10T18:23:19.168Z,11.90
2018-06-10T18:25:47.885Z,13.10
2018-06-10T18:28:17.189Z,14.03
2018-06-10T18:30:45.865Z,12.73
2018-06-10T18:33:14.039Z,16.50
2018-06-10T18:35:42.265Z,15.60
2018-06-10T18:38:10.316Z,12.60
2018-06-10T18:40:38.394Z,11.07
2018-06-10T18:43:06.446Z,12.03
2018-06-10T18:45:34.523Z,10.80
2018-06-10T18:48:02.570Z,11.80
2018-06-10T18:50:30.674Z,16.10
2018-06-10T18:52:58.719Z,12.67
2018-06-10T18:55:26.817Z,10.87
2018-06-10T18:57:54.874Z,15.10
2018-06-10T19:00:22.945Z,13.43
2018-06-10T19:02:51.818Z,11.23
2018-06-10T19:05:20.150Z,13.23
2018-06-10T19:07:49.015Z,12.10
2018-06-10T19:10:18.128Z,11.50
2018-06-10T19:12:46.569Z,10.33
2018-06-10T19:15:14.809Z,9.70
2018-06-10T19:17:42.965Z,15.63
2018-06-10T19:20:11.023Z,12.40
2018-06-10T19:22:39.131Z,13.33
2018-06-10T19:25:07.188Z,17.50
2018-06-10T19:27:35.288Z,7.43
2018-06-10T19:30:03.404Z,8.97
2018-06-10T19:32:31.465Z,11.03
2018-06-10T19:34:59.496Z,5.43
2018-06-10T19:37:27.560Z,7.13
2018-06-10T19:39:55.600Z,6.70
2018-06-10T19:42:23.667Z,9.83
2018-06-10T19:44:51.885Z,6.97
2018-06-10T19:47:20.582Z,5.70
2018-06-10T19:49:50.661Z,7.33
2018-06-10T19:52:20.805Z,5.57
2018-06-10T19:54:51.720Z,9.47
2018-06-10T19:57:21.581Z,11.83
2018-06-10T19:59:51.504Z,9.43
2018-06-10T20:02:20.432Z,12.77
2018-06-10T20:04:49.399Z,14.90
2018-06-10T20:07:17.977Z,9.47
2018-06-10T20:09:46.154Z,6.50
2018-06-10T20:12:14.221Z,7.13
2018-06-10T20:14:42.258Z,4.90
2018-06-10T20:17:10.316Z,5.50
2018-06-10T20:19:38.387Z,4.50
2018-06-10T20:22:06.607Z,10.70
2018-06-10T20:24:34.733Z,3.80
2018-06-10T20:27:02.803Z,7.60
2018-06-10T20:29:30.876Z,6.43
2018-06-10T20:31:58.948Z,3.37
2018-06-10T20:34:26.978Z,3.00
2018-06-10T20:36:55.046Z,11.47
2018-06-10T20:39:23.225Z,3.20
2018-06-10T20:41:51.936Z,7.87
2018-06-10T20:44:20.799Z,6.13
2018-06-10T20:46:49.387Z,6.23
2018-06-10T20:49:17.682Z,3.63
2018-06-10T20:51:45.912Z,2.40
2018-06-10T20:54:13.979Z,4.63
2018-06-10T20:56:42.068Z,2.80
2018-06-10T20:59:10.148Z,3.87
2018-06-10T21:01:38.312Z,3.53
2018-06-10T21:04:06.348Z,2.33
2018-06-10T21:06:34.469Z,2.77
2018-06-10T21:09:02.601Z,4.90
2018-06-10T21:11:30.902Z,2.30
2018-06-10T21:13:58.977Z,2.13
2018-06-10T21:16:27.017Z,2.90
2018-06-10T21:18:55.141Z,6.53
2018-06-10T21:21:24.067Z,10.63
2018-06-10T21:23:53.260Z,4.53
2018-06-10T21:26:22.222Z,2.80
2018-06-10T21:28:50.913Z,2.27
2018-06-10T21:31:19.129Z,2.20
2018-06-10T21:33:47.301Z,3.70
2018-06-10T21:36:15.476Z,4.07
2018-06-10T21:38:43.579Z,3.20
2018-06-10T21:41:11.717Z,2.97
2018-06-10T21:43:39.849Z,2.83
2018-06-10T21:46:07.885Z,2.97
2018-06-10T21:48:35.971Z,10.70
2018-06-10T21:51:04.444Z,2.35
2018-06-10T21:53:32.525Z,3.60
2018-06-10T21:56:00.565Z,3.93
2018-06-10T21:58:28.672Z,4.80
2018-06-10T22:00:57.781Z,5.63
2018-06-10T22:03:26.019Z,3.77
2018-06-10T22:05:54.918Z,6.27
2018-06-10T22:08:24.029Z,4.83
2018-06-10T22:10:52.638Z,9.00
2018-06-10T22:13:20.818Z,8.27
2018-06-10T22:15:49.006Z,4.90
2018-06-10T22:18:17.063Z,5.97
2018-06-10T22:20:45.101Z,7.87
2018-06-10T22:23:14.101Z,6.83
2018-06-10T22:25:42.132Z,5.57
2018-06-10T22:28:10.254Z,8.87
2018-06-10T22:30:38.287Z,4.40
2018-06-10T22:33:06.344Z,10.13
2018-06-10T22:35:34.391Z,9.53
2018-06-10T22:38:02.452Z,4.23
2018-06-10T22:40:30.477Z,6.57
2018-06-10T22:42:58.543Z,4.33
2018-06-10T22:45:26.881Z,5.30
2018-06-10T22:47:55.802Z,4.43
2018-06-10T22:50:24.550Z,8.90
2018-06-10T22:53:03.811Z,4.80
2018-06-10T22:55:31.857Z,4.53
2018-06-10T22:57:59.946Z,6.10
2018-06-10T23:00:28.144Z,13.03
2018-06-10T23:02:56.957Z,4.60
2018-06-10T23:05:25.996Z,4.43
2018-06-10T23:07:54.887Z,6.43
2018-06-10T23:10:23.103Z,5.10
2018-06-10T23:12:51.257Z,6.17
2018-06-10T23:15:19.336Z,6.80
2018-06-10T23:17:47.483Z,5.77
2018-06-10T23:20:15.546Z,4.20
2018-06-10T23:22:43.664Z,5.10
2018-06-10T23:25:11.719Z,11.23
2018-06-10T23:27:39.746Z,5.13
2018-06-10T23:30:07.832Z,4.10
2018-06-10T23:32:35.889Z,12.40
2018-06-10T23:35:03.939Z,5.50
2018-06-10T23:37:31.964Z,5.07
2018-06-10T23:40:00.046Z,5.60
2018-06-10T23:42:28.632Z,6.63
2018-06-10T23:44:57.741Z,3.67
2018-06-10T23:47:26.481Z,6.20
2018-06-10T23:49:54.580Z,4.60
2018-06-10T23:52:22.736Z,5.73
2018-06-10T23:54:50.813Z,6.17
2018-06-10T23:57:18.861Z,5.33
2018-06-10T23:59:46.930Z,6.60
